Time;durP1;ratioP1;P1;durP2;ratioP2;P2;SDS_P1;SDS_P2;PMS_P1;PMS_P2;Temp;Humidity;BMP_temperature;BMP_pressure;BME280_temperature;BME280_humidity;BME280_pressure;Samples;Min_cycle;Max_cycle;Signal;HPM_P1;HPM_P2
2021/01/25 00:02:20;;;;;;;20.53;6.73;;;2.50;99.90;;;3.27;95.21;99485.22;5040146;28;20196;-74
2021/01/25 00:04:46;;;;;;;21.13;6.97;;;2.60;99.90;;;3.28;94.68;99486.06;5054527;28;20213;-73
2021/01/25 00:07:12;;;;;;;20.90;6.63;;;2.50;99.90;;;3.24;94.53;99482.72;5037113;28;20624;-73
2021/01/25 00:09:38;;;;;;;19.20;6.30;;;2.60;99.90;;;3.19;94.31;99486.31;5035910;28;20236;-73
2021/01/25 00:12:06;;;;;;;19.10;7.53;;;2.50;99.90;;;3.17;94.70;99480.34;5045562;28;20200;-73
2021/01/25 00:14:32;;;;;;;22.70;7.05;;;2.50;99.90;;;3.13;94.84;99479.56;5051688;28;20217;-74
2021/01/25 00:17:00;;;;;;;22.20;7.73;;;2.50;99.90;;;3.11;95.11;99480.50;5043510;28;20657;-73
2021/01/25 00:19:27;;;;;;;20.17;7.23;;;2.50;99.90;;;3.11;94.78;99485.69;5040203;28;20565;-75
2021/01/25 00:21:53;;;;;;;23.63;7.43;;;2.50;99.90;;;3.06;94.53;99483.25;5042731;28;20204;-72
2021/01/25 00:24:19;;;;;;;21.77;6.90;;;2.40;99.90;;;2.98;94.68;99480.00;5038726;28;20205;-72
2021/01/25 00:26:46;;;;;;;22.63;7.37;;;2.30;99.90;;;3.04;94.83;99491.91;5047742;28;20185;-72
2021/01/25 00:29:12;;;;;;;18.60;6.60;;;2.30;99.90;;;3.10;95.04;99486.59;5046818;28;20605;-73
2021/01/25 00:31:38;;;;;;;20.00;7.20;;;2.40;99.90;;;3.10;94.93;99487.41;5044138;28;20199;-73
2021/01/25 00:34:04;;;;;;;21.50;6.90;;;2.40;99.90;;;3.14;94.92;99489.03;5043876;28;20224;-75
2021/01/25 00:36:31;;;;;;;20.30;6.90;;;2.50;99.90;;;3.19;95.22;99488.91;5043268;28;20185;-73
2021/01/25 00:38:58;;;;;;;19.40;6.43;;;2.50;99.90;;;3.19;95.28;99491.47;5048073;28;20196;-73
2021/01/25 00:41:24;;;;;;;19.67;6.77;;;2.50;99.90;;;3.13;95.10;99484.75;5046820;28;20513;-73
2021/01/25 00:43:50;;;;;;;21.37;6.90;;;2.50;99.90;;;3.12;95.09;99492.53;5046582;28;20283;-72
2021/01/25 00:46:16;;;;;;;18.57;6.10;;;2.50;99.90;;;3.12;95.19;99485.63;5046572;28;20727;-73
2021/01/25 00:48:42;;;;;;;17.93;5.80;;;2.50;99.90;;;3.10;95.14;99489.16;5043679;28;20216;-73
2021/01/25 00:51:09;;;;;;;19.57;5.90;;;2.50;99.90;;;3.12;95.54;99490.81;5042299;28;20563;-72
2021/01/25 00:53:36;;;;;;;20.33;6.50;;;2.50;99.90;;;3.17;95.67;99495.84;5039467;28;20703;-74
2021/01/25 00:56:03;;;;;;;19.67;6.77;;;2.50;99.90;;;3.19;95.61;99492.34;5039563;28;20235;-71
2021/01/25 00:58:30;;;;;;;19.33;6.10;;;2.50;99.90;;;3.22;95.58;99496.56;5042096;28;20192;-72
2021/01/25 01:00:56;;;;;;;20.17;6.43;;;2.60;99.90;;;3.17;95.57;99495.84;5039922;28;20196;-73
2021/01/25 01:03:22;;;;;;;20.90;7.00;;;2.50;99.90;;;3.14;95.58;99506.25;5039279;28;20717;-72
2021/01/25 01:05:48;;;;;;;20.03;6.43;;;2.50;99.90;;;3.11;95.49;99506.34;5042639;28;20205;-73
2021/01/25 01:08:16;;;;;;;21.40;6.87;;;2.50;99.90;;;3.09;95.35;99500.38;5042084;28;20212;-73
2021/01/25 01:10:43;;;;;;;21.70;7.43;;;2.50;99.90;;;3.12;95.93;99497.69;5039341;28;20275;-73
2021/01/25 01:13:10;;;;;;;22.97;7.37;;;2.50;99.90;;;3.14;95.77;99501.94;5036773;28;20204;-76
2021/01/25 01:15:36;;;;;;;20.27;7.10;;;2.50;99.90;;;3.16;95.90;99496.75;5039503;28;20197;-73
2021/01/25 01:18:02;;;;;;;22.43;7.47;;;2.50;99.90;;;3.18;95.85;99507.88;5036170;28;20211;-73
2021/01/25 01:20:29;;;;;;;20.13;7.37;;;2.50;99.90;;;3.19;95.92;99501.81;5040283;28;20246;-72
2021/01/25 01:22:55;;;;;;;22.13;8.13;;;2.50;99.90;;;3.17;95.91;99506.16;5041723;28;20527;-73
2021/01/25 01:25:21;;;;;;;23.27;7.80;;;2.50;99.90;;;3.17;95.89;99506.16;5040829;28;20198;-72
2021/01/25 01:27:48;;;;;;;22.80;7.53;;;2.50;99.90;;;3.18;96.08;99506.13;5039574;28;21052;-73
2021/01/25 01:30:16;;;;;;;25.03;8.10;;;2.50;99.90;;;3.14;95.88;99506.25;5040328;28;20300;-74
2021/01/25 01:32:42;;;;;;;24.53;8.40;;;2.50;99.90;;;3.08;95.77;99504.69;5038016;28;20662;-75
2021/01/25 01:35:09;;;;;;;26.30;8.63;;;2.50;99.90;;;3.08;96.07;99507.25;5036860;28;20757;-70
2021/01/25 01:37:36;;;;;;;23.35;7.90;;;2.40;99.90;;;3.08;95.99;99517.59;5037679;28;20196;-73
2021/01/25 01:40:06;;;;;;;22.40;8.47;;;2.40;99.90;;;3.05;95.75;99504.78;5040437;28;20197;-71
2021/01/25 01:42:33;;;;;;;23.67;8.63;;;2.40;99.90;;;3.04;95.61;99504.81;5037098;28;20668;-74
2021/01/25 01:45:01;;;;;;;23.23;8.27;;;2.40;99.90;;;3.01;95.86;99507.50;5053248;28;20217;-74
2021/01/25 01:47:29;;;;;;;23.40;8.50;;;2.30;99.90;;;3.00;95.52;99500.66;5038140;28;20224;-70
2021/01/25 01:49:56;;;;;;;26.17;9.20;;;2.30;99.90;;;3.00;95.94;99508.41;5041836;28;20197;-71
2021/01/25 01:52:22;;;;;;;26.53;8.73;;;2.30;99.90;;;3.04;95.84;99510.00;5039403;28;20201;-73
2021/01/25 01:54:50;;;;;;;27.43;9.33;;;2.30;99.90;;;3.05;95.76;99507.34;5037361;28;20223;-72
2021/01/25 01:57:17;;;;;;;23.70;8.53;;;2.40;99.90;;;3.09;95.60;99514.16;5038165;28;20185;-73
2021/01/25 01:59:43;;;;;;;25.93;9.97;;;2.40;99.90;;;3.12;95.55;99508.88;5036747;28;20519;-72
2021/01/25 02:02:10;;;;;;;29.13;8.83;;;2.40;99.90;;;3.19;95.45;99509.56;5037718;28;20200;-72
2021/01/25 02:04:38;;;;;;;26.27;9.73;;;2.40;99.90;;;3.20;95.46;99513.88;5054398;28;20232;-73
2021/01/25 02:07:07;;;;;;;25.87;9.50;;;2.40;99.90;;;3.18;95.12;99508.72;5057948;28;20281;-72
2021/01/25 02:09:40;;;;;;;24.70;8.87;;;2.40;99.90;;;3.15;94.62;99510.56;5039267;28;20279;-73
2021/01/25 02:12:10;;;;;;;28.93;9.37;;;2.40;99.90;;;3.14;94.82;99519.19;5040411;28;20193;-76
2021/01/25 02:14:38;;;;;;;28.97;9.07;;;2.40;99.90;;;3.12;94.73;99528.69;5040742;28;20701;-73
2021/01/25 02:17:05;;;;;;;25.03;8.97;;;2.30;99.90;;;3.08;94.39;99514.19;5042100;28;20200;-73
2021/01/25 02:19:41;;;;;;;26.93;9.97;;;2.30;99.90;;;3.04;94.35;99521.19;5034821;28;20227;-71
2021/01/25 02:22:48;;;;;;;27.17;9.77;;;2.30;99.90;;;2.99;94.31;99524.75;5038611;28;20197;-73
2021/01/25 02:25:18;;;;;;;22.43;8.20;;;2.20;99.90;;;2.96;94.25;99520.53;5039564;28;20204;-73
2021/01/25 02:27:46;;;;;;;25.17;8.70;;;2.20;99.90;;;2.95;94.18;99518.00;5043042;28;20209;-75
2021/01/25 02:30:15;;;;;;;24.70;8.13;;;2.10;99.90;;;2.91;93.96;99524.13;5039683;28;20189;-71
2021/01/25 02:32:43;;;;;;;26.00;9.17;;;2.10;99.90;;;2.86;93.99;99523.41;5039558;28;20708;-72
2021/01/25 02:35:13;;;;;;;22.20;8.70;;;2.10;99.90;;;2.84;94.02;99530.31;5035668;28;20257;-70
2021/01/25 02:37:41;;;;;;;28.43;8.67;;;2.00;99.90;;;2.84;94.34;99531.19;5037851;28;20268;-72
2021/01/25 02:40:12;;;;;;;26.03;9.40;;;2.10;99.90;;;2.86;93.89;99541.47;5053295;28;20188;-73
2021/01/25 02:42:40;;;;;;;24.57;9.23;;;2.10;99.90;;;2.87;94.21;99535.41;5033821;28;20665;-72
2021/01/25 02:45:09;;;;;;;25.23;9.37;;;2.10;99.90;;;2.87;93.86;99545.72;5036985;28;20212;-73
2021/01/25 02:47:38;;;;;;;28.00;10.27;;;2.10;99.90;;;2.85;94.19;99545.78;5041579;28;20220;-76
2021/01/25 02:50:06;;;;;;;25.60;9.40;;;2.10;99.90;;;2.81;93.74;99551.06;5038457;28;20594;-75
2021/01/25 02:52:33;;;;;;;26.50;9.17;;;2.10;99.90;;;2.74;93.88;99549.53;5038775;28;20216;-74
2021/01/25 02:55:01;;;;;;;24.07;9.60;;;2.00;99.90;;;2.70;93.92;99548.75;5041369;28;20665;-75
2021/01/25 02:57:29;;;;;;;25.63;9.27;;;2.00;99.90;;;2.70;94.05;99555.66;5043665;28;20224;-75
2021/01/25 02:59:57;;;;;;;24.57;9.53;;;2.00;99.90;;;2.68;93.84;99547.94;5042354;28;20263;-74
2021/01/25 03:02:24;;;;;;;25.37;9.67;;;2.00;99.90;;;2.70;94.23;99555.66;5034866;28;20603;-73
2021/01/25 03:04:50;;;;;;;27.10;9.40;;;2.00;99.90;;;2.71;94.10;99552.19;5043018;28;20651;-74
2021/01/25 03:07:17;;;;;;;31.53;10.10;;;2.00;99.90;;;2.75;94.10;99553.81;5043107;28;20249;-77
2021/01/25 03:09:43;;;;;;;23.77;8.47;;;2.10;99.90;;;2.72;93.88;99557.31;5039449;28;20193;-74
2021/01/25 03:12:10;;;;;;;26.77;9.40;;;2.10;99.90;;;2.71;94.00;99558.22;5041946;28;20227;-75
2021/01/25 03:14:43;;;;;;;26.77;9.37;;;2.10;99.90;;;2.70;93.68;99551.34;5041370;28;20713;-72
2021/01/25 03:17:10;;;;;;;23.70;8.80;;;2.10;99.90;;;2.75;93.67;99559.00;5040672;28;20709;-76
2021/01/25 03:19:37;;;;;;;23.50;8.67;;;2.10;99.90;;;2.76;93.88;99558.09;5038806;28;20194;-75
2021/01/25 03:22:03;;;;;;;23.87;8.87;;;2.10;99.90;;;2.79;94.04;99556.28;5041719;28;20267;-74
2021/01/25 03:24:29;;;;;;;24.23;9.13;;;2.10;99.90;;;2.80;93.59;99554.56;5042808;28;20220;-71
2021/01/25 03:26:56;;;;;;;23.43;8.77;;;2.10;99.90;;;2.78;93.44;99554.56;5043361;28;20214;-74
2021/01/25 03:29:22;;;;;;;23.73;8.33;;;2.10;99.90;;;2.82;93.56;99563.09;5037169;28;20220;-74
2021/01/25 03:31:48;;;;;;;22.23;7.83;;;2.20;99.90;;;2.87;93.43;99553.47;5043014;28;20741;-74
2021/01/25 03:34:14;;;;;;;20.93;7.77;;;2.20;99.90;;;2.89;93.45;99565.50;5041034;28;20229;-73
2021/01/25 03:36:42;;;;;;;17.40;7.13;;;2.20;99.90;;;2.90;93.10;99566.34;5040480;28;20192;-71
2021/01/25 03:39:08;;;;;;;17.50;6.73;;;2.30;99.90;;;2.93;92.98;99561.09;5040174;28;20185;-70
2021/01/25 03:41:34;;;;;;;18.33;7.57;;;2.30;99.90;;;2.93;92.74;99564.50;5033455;28;20196;-74
2021/01/25 03:44:01;;;;;;;18.27;7.27;;;2.20;99.90;;;2.92;92.39;99567.97;5044048;28;20243;-74
2021/01/25 03:46:27;;;;;;;17.03;6.70;;;2.20;99.90;;;2.90;92.13;99574.91;5040451;28;20201;-74
2021/01/25 03:48:53;;;;;;;23.37;8.97;;;2.20;99.90;;;2.87;92.26;99572.41;5040070;28;20224;-71
2021/01/25 03:51:20;;;;;;;20.90;8.13;;;2.20;99.90;;;2.87;91.89;99576.72;5035316;28;20201;-74
2021/01/25 03:53:47;;;;;;;22.53;8.07;;;2.20;99.90;;;2.89;92.04;99587.88;5039929;28;20205;-71
2021/01/25 03:56:13;;;;;;;22.87;8.50;;;2.20;99.90;;;2.87;91.79;99589.63;5043640;28;20188;-74
2021/01/25 03:58:41;;;;;;;21.47;8.37;;;2.20;99.90;;;2.90;92.01;99590.41;5041090;28;20204;-74
2021/01/25 04:01:07;;;;;;;20.17;7.60;;;2.20;99.90;;;2.91;91.81;99580.94;5043806;28;20193;-72
2021/01/25 04:03:33;;;;;;;20.77;8.10;;;2.20;99.90;;;2.94;91.64;99581.72;5037373;28;20221;-74
2021/01/25 04:05:59;;;;;;;18.50;7.53;;;2.30;99.90;;;2.95;91.82;99585.97;5043401;28;20197;-71
2021/01/25 04:08:25;;;;;;;20.07;7.27;;;2.30;99.90;;;2.93;91.68;99584.34;5037369;28;20225;-74
2021/01/25 04:10:52;;;;;;;22.17;7.93;;;2.30;99.90;;;2.94;91.51;99576.53;5039035;28;20181;-71
2021/01/25 04:13:19;;;;;;;23.70;8.03;;;2.30;99.90;;;2.98;91.57;99580.72;5041765;28;20693;-73
2021/01/25 04:15:45;;;;;;;21.60;7.80;;;2.30;99.90;;;3.01;91.59;99577.25;5042332;28;20200;-73
2021/01/25 04:18:11;;;;;;;20.93;8.03;;;2.30;99.90;;;3.05;91.16;99576.28;5040960;28;20192;-73
2021/01/25 04:20:37;;;;;;;20.73;8.13;;;2.40;99.90;;;3.09;91.57;99583.03;5039257;28;20197;-70
2021/01/25 04:23:03;;;;;;;20.97;8.33;;;2.40;99.90;;;3.10;91.17;99587.34;5038869;28;20196;-70
2021/01/25 04:25:30;;;;;;;23.13;8.43;;;2.40;99.90;;;3.06;91.11;99590.88;5042951;28;20346;-71
2021/01/25 04:27:57;;;;;;;22.73;8.33;;;2.40;99.90;;;3.00;91.13;99588.47;5043080;28;20213;-72
2021/01/25 04:30:24;;;;;;;27.43;9.20;;;2.40;99.90;;;2.97;91.21;99591.09;5041803;28;20295;-74
2021/01/25 04:32:50;;;;;;;26.83;9.30;;;2.40;99.90;;;2.91;91.25;99586.97;5039849;28;20189;-74
2021/01/25 04:35:17;;;;;;;23.57;9.83;;;2.30;99.90;;;2.85;90.99;99587.09;5042534;28;20680;-74
2021/01/25 04:37:44;;;;;;;26.30;10.00;;;2.30;99.90;;;2.84;91.42;99581.97;5048356;28;20205;-71
2021/01/25 04:40:12;;;;;;;24.03;9.37;;;2.30;99.90;;;2.87;91.58;99572.41;5034797;28;20201;-73
2021/01/25 04:42:40;;;;;;;25.47;9.57;;;2.30;99.90;;;2.92;91.71;99583.47;5044610;28;20234;-73
2021/01/25 04:45:11;;;;;;;26.80;9.70;;;2.30;99.90;;;2.98;91.61;99583.31;5039587;28;20208;-74
2021/01/25 04:47:41;;;;;;;24.37;8.67;;;2.30;99.90;;;2.99;91.61;99597.09;5034150;28;20220;-74
2021/01/25 04:50:09;;;;;;;33.30;10.77;;;2.30;99.90;;;2.98;91.40;99603.97;5034784;28;20622;-71
2021/01/25 04:52:35;;;;;;;27.53;10.50;;;2.30;99.90;;;3.01;91.74;99603.94;5038246;28;20201;-74
2021/01/25 04:55:04;;;;;;;26.47;9.87;;;2.30;99.90;;;3.05;91.87;99602.13;5041276;28;20765;-72
2021/01/25 04:57:32;;;;;;;27.57;10.40;;;2.40;99.90;;;3.01;91.50;99601.34;5042111;28;20289;-73
2021/01/25 05:00:01;;;;;;;26.10;9.53;;;2.40;99.90;;;3.00;91.40;99607.38;5042575;28;20727;-73
2021/01/25 05:02:28;;;;;;;31.83;11.40;;;2.40;99.90;;;2.97;91.28;99619.53;5036965;28;20193;-74
2021/01/25 05:04:54;;;;;;;25.13;9.27;;;2.40;99.90;;;2.89;91.45;99616.28;5038052;28;20595;-74
2021/01/25 05:07:21;;;;;;;27.40;10.70;;;2.30;99.90;;;2.84;91.59;99616.41;5037380;28;20197;-74
2021/01/25 05:09:47;;;;;;;29.43;11.20;;;2.30;99.90;;;2.81;91.80;99621.66;5039535;28;20646;-75
2021/01/25 05:12:13;;;;;;;28.00;10.53;;;2.30;99.90;;;2.77;91.65;99619.16;5040711;28;20184;-71
2021/01/25 05:14:42;;;;;;;29.30;11.33;;;2.30;99.90;;;2.80;91.81;99624.28;5042240;28;20220;-73
2021/01/25 05:17:10;;;;;;;33.60;11.63;;;2.30;99.90;;;2.79;91.86;99627.72;5047705;28;20193;-74
2021/01/25 05:19:41;;;;;;;28.70;11.47;;;2.30;99.90;;;2.80;91.82;99624.28;5044499;28;20266;-74
2021/01/25 05:22:15;;;;;;;28.17;10.80;;;2.30;99.90;;;2.82;92.12;99622.47;5036381;28;20185;-73
2021/01/25 05:24:47;;;;;;;28.83;11.10;;;2.30;99.90;;;2.86;92.17;99624.13;5040765;28;20204;-73
2021/01/25 05:27:22;;;;;;;35.00;12.20;;;2.30;99.90;;;2.87;92.09;99615.47;5036451;28;20555;-74
2021/01/25 05:29:49;;;;;;;31.50;12.00;;;2.30;99.90;;;2.88;91.92;99612.84;5047873;28;20276;-74
2021/01/25 05:32:18;;;;;;;30.20;12.02;;;2.30;99.90;;;2.89;92.08;99613.69;5040002;28;20189;-74
2021/01/25 05:34:46;;;;;;;38.33;12.57;;;2.30;99.90;;;2.86;92.11;99608.63;5043161;28;20649;-74
2021/01/25 05:37:17;;;;;;;32.07;12.30;;;2.30;99.90;;;2.85;92.22;99618.09;5036733;28;20272;-73
2021/01/25 05:39:45;;;;;;;31.20;11.67;;;2.30;99.90;;;2.84;91.70;99619.00;5039628;28;20192;-73
2021/01/25 05:42:12;;;;;;;36.37;12.67;;;2.30;99.90;;;2.83;91.84;99613.88;5043776;28;20288;-74
2021/01/25 05:44:39;;;;;;;31.17;10.87;;;2.30;99.90;;;2.82;92.07;99615.59;5034378;28;20208;-74
2021/01/25 05:47:07;;;;;;;31.63;12.53;;;2.30;99.90;;;2.83;92.01;99608.69;5037440;28;20204;-74
2021/01/25 05:49:33;;;;;;;29.57;12.80;;;2.30;99.90;;;2.82;91.95;99609.56;5038788;28;20208;-74
2021/01/25 05:52:00;;;;;;;32.83;12.07;;;2.30;99.90;;;2.81;92.11;99610.47;5039942;28;20200;-73
2021/01/25 05:54:27;;;;;;;30.37;12.47;;;2.30;99.90;;;2.77;92.00;99607.09;5042467;28;20224;-74
2021/01/25 05:56:54;;;;;;;33.63;12.13;;;2.30;99.90;;;2.78;92.13;99610.53;5040614;28;20973;-74
2021/01/25 05:59:21;;;;;;;33.77;11.87;;;2.30;99.90;;;2.79;91.86;99618.25;5041044;28;20561;-74
2021/01/25 06:01:48;;;;;;;29.87;12.60;;;2.30;99.90;;;2.82;92.05;99612.16;5038913;28;20185;-74
2021/01/25 06:04:19;;;;;;;32.40;12.17;;;2.30;99.90;;;2.82;91.97;99619.91;5039927;28;20346;-74
2021/01/25 06:07:04;;;;;;;29.37;11.97;;;2.30;99.90;;;2.82;91.66;99612.16;5033093;28;20197;-74
2021/01/25 06:09:43;;;;;;;29.57;11.63;;;2.30;99.90;;;2.83;91.73;99624.19;5043081;28;20209;-73
2021/01/25 06:12:10;;;;;;;29.33;11.57;;;2.30;99.90;;;2.85;91.90;99618.09;5062368;28;20603;-72
2021/01/25 06:14:46;;;;;;;32.80;11.50;;;2.30;99.90;;;2.84;91.46;99623.28;5043274;28;20209;-74
2021/01/25 06:17:14;;;;;;;29.33;10.80;;;2.30;99.90;;;2.82;91.61;99623.34;5038441;28;20189;-74
2021/01/25 06:19:42;;;;;;;28.87;11.20;;;2.30;99.90;;;2.85;91.72;99627.59;5061642;28;20189;-74
2021/01/25 06:22:11;;;;;;;30.97;11.70;;;2.30;99.90;;;2.85;91.58;99628.41;5044336;28;20184;-72
2021/01/25 06:24:41;;;;;;;33.63;12.90;;;2.40;99.90;;;2.83;91.38;99619.84;5057781;28;20275;-74
2021/01/25 06:27:07;;;;;;;31.87;11.70;;;2.30;99.90;;;2.83;91.18;99631.94;5038801;28;20193;-74
2021/01/25 06:29:35;;;;;;;32.13;11.67;;;2.30;99.90;;;2.78;90.95;99636.38;5040923;28;20622;-72
2021/01/25 06:32:01;;;;;;;33.87;12.77;;;2.30;99.90;;;2.75;91.20;99641.63;5052023;28;20540;-73
2021/01/25 06:34:28;;;;;;;30.90;12.03;;;2.30;99.90;;;2.76;91.59;99638.13;5048723;28;20216;-73
2021/01/25 06:36:55;;;;;;;30.60;12.53;;;2.30;99.90;;;2.77;91.16;99634.66;5049276;28;20523;-73
2021/01/25 06:39:25;;;;;;;29.57;11.63;;;2.30;99.90;;;2.76;91.27;99645.88;5050577;28;20204;-73
2021/01/25 06:42:02;;;;;;;30.43;12.00;;;2.30;99.90;;;2.75;91.19;99644.19;5051457;28;20188;-74
2021/01/25 06:44:30;;;;;;;35.93;12.23;;;2.30;99.90;;;2.73;91.34;99646.78;5046958;28;20220;-74
2021/01/25 06:46:58;;;;;;;31.67;11.37;;;2.30;99.90;;;2.71;91.20;99652.88;5048428;28;20634;-73
2021/01/25 06:49:26;;;;;;;36.33;13.37;;;2.30;99.90;;;2.71;91.47;99648.59;5050151;28;20223;-74
2021/01/25 06:51:55;;;;;;;35.07;12.17;;;2.30;99.90;;;2.70;91.47;99659.78;5044247;28;20662;-73
2021/01/25 06:54:24;;;;;;;31.20;12.47;;;2.30;99.90;;;2.70;91.51;99659.78;5052459;28;20762;-70
2021/01/25 06:56:53;;;;;;;35.63;12.57;;;2.30;99.90;;;2.75;91.34;99665.69;5048838;28;20193;-74
2021/01/25 06:59:24;;;;;;;38.07;12.33;;;2.30;99.90;;;2.74;91.14;99670.88;5050958;28;20562;-73
2021/01/25 07:01:52;;;;;;;33.37;12.77;;;2.30;99.90;;;2.73;91.49;99667.44;5051059;28;20678;-73
2021/01/25 07:04:20;;;;;;;37.37;13.33;;;2.30;99.90;;;2.77;91.46;99678.56;5050719;28;20220;-74
2021/01/25 07:06:49;;;;;;;37.43;12.03;;;2.30;99.90;;;2.78;91.27;99675.09;5048651;28;20189;-73
2021/01/25 07:09:26;;;;;;;35.90;12.97;;;2.30;99.90;;;2.82;91.38;99684.47;5050547;28;20223;-73
2021/01/25 07:11:55;;;;;;;32.43;13.27;;;2.40;99.90;;;2.86;91.51;99678.34;5052015;28;20224;-74
2021/01/25 07:14:25;;;;;;;33.90;11.70;;;2.40;99.90;;;2.89;91.28;99680.84;5045412;28;21654;-70
2021/01/25 07:16:54;;;;;;;32.73;12.07;;;2.40;99.90;;;2.91;91.29;99690.28;5042645;28;20261;-74
2021/01/25 07:19:20;;;;;;;36.33;12.97;;;2.50;99.90;;;2.91;91.27;99686.84;5034385;28;20557;-75
2021/01/25 07:21:48;;;;;;;41.40;14.10;;;2.40;99.90;;;2.94;91.15;99689.34;5040157;28;20200;-74
2021/01/25 07:24:20;;;;;;;36.53;13.63;;;2.50;99.90;;;2.95;91.04;99688.47;5039577;28;20346;-73
2021/01/25 07:26:51;;;;;;;34.80;12.50;;;2.50;99.90;;;2.93;91.00;99693.66;5041865;28;20204;-73
2021/01/25 07:29:17;;;;;;;29.30;11.07;;;2.50;99.90;;;2.91;91.15;99697.16;5037654;28;20217;-73
2021/01/25 07:31:44;;;;;;;36.10;13.07;;;2.50;99.90;;;2.87;91.01;99698.97;5035839;28;20201;-74
2021/01/25 07:34:11;;;;;;;32.63;11.87;;;2.50;99.90;;;2.83;91.06;99707.66;5034796;28;20216;-74
2021/01/25 07:36:38;;;;;;;31.63;12.60;;;2.50;99.90;;;2.83;90.96;99707.66;5034046;28;20188;-70
2021/01/25 07:39:06;;;;;;;33.70;13.00;;;2.50;99.90;;;2.84;90.93;99708.53;5039986;28;20181;-72
2021/01/25 07:41:33;;;;;;;34.53;12.33;;;2.50;99.90;;;2.88;91.11;99716.16;5038904;28;20254;-73
2021/01/25 07:44:02;;;;;;;35.03;13.13;;;2.50;99.90;;;2.90;90.98;99716.16;5039665;28;20213;-70
2021/01/25 07:46:29;;;;;;;31.60;11.90;;;2.50;99.90;;;2.91;91.18;99721.28;5036226;28;20204;-72
2021/01/25 07:48:56;;;;;;;35.40;12.77;;;2.50;99.90;;;2.92;91.18;99717.78;5044662;28;20212;-73
2021/01/25 07:51:24;;;;;;;38.60;12.57;;;2.60;99.90;;;2.95;90.74;99722.06;5034494;28;20610;-73
2021/01/25 07:53:51;;;;;;;32.43;12.37;;;2.60;99.90;;;2.93;90.99;99721.22;5036421;28;20216;-73
2021/01/25 07:56:19;;;;;;;39.20;12.93;;;2.60;99.90;;;2.93;90.71;99718.66;5038301;28;20189;-72
2021/01/25 07:58:47;;;;;;;34.60;12.67;;;2.60;99.90;;;2.90;90.53;99724.72;5034965;28;20201;-72
2021/01/25 08:01:23;;;;;;;34.10;11.53;;;2.50;99.90;;;2.90;90.73;99718.72;5039037;28;20211;-74
2021/01/25 08:03:59;;;;;;;34.50;11.80;;;2.60;99.90;;;2.90;90.74;99714.38;5034525;28;20216;-73
2021/01/25 08:06:26;;;;;;;32.37;12.07;;;2.60;99.90;;;2.92;90.43;99728.13;5034687;28;20255;-73
2021/01/25 08:08:53;;;;;;;31.67;11.18;;;2.60;99.90;;;2.96;90.66;99731.50;5033717;28;20212;-73
2021/01/25 08:11:20;;;;;;;31.53;12.17;;;2.60;99.90;;;2.99;90.31;99726.25;5033278;28;20568;-74
2021/01/25 08:14:01;;;;;;;31.83;11.97;;;2.60;99.90;;;3.04;90.33;99727.00;5036170;28;20213;-73
2021/01/25 08:16:35;;;;;;;30.10;11.13;;;2.70;99.90;;;3.06;89.92;99726.09;5042551;28;20217;-73
2021/01/25 08:19:10;;;;;;;35.63;12.07;;;2.70;99.90;;;2.98;89.85;99734.88;5047627;28;20232;-75
2021/01/25 08:21:44;;;;;;;29.77;11.05;;;2.60;99.90;;;2.88;89.59;99730.81;5044770;28;20192;-76
2021/01/25 08:24:12;;;;;;;29.93;11.40;;;2.60;99.90;;;2.87;89.60;99744.59;5035384;28;20228;-74
2021/01/25 08:26:40;;;;;;;31.17;11.07;;;2.60;99.90;;;2.87;89.58;99739.44;5037782;28;20355;-75
2021/01/25 08:29:19;;;;;;;33.77;11.47;;;2.60;99.90;;;2.87;89.64;99739.44;5046592;28;20213;-75
2021/01/25 08:31:47;;;;;;;29.83;10.90;;;2.60;99.90;;;2.88;89.78;99743.75;5046259;28;20184;-74
2021/01/25 08:34:26;;;;;;;28.80;10.53;;;2.60;99.90;;;2.90;89.69;99745.38;5033333;28;20210;-75
2021/01/25 08:37:04;;;;;;;29.13;10.77;;;2.60;99.90;;;2.90;89.78;99749.72;5045772;28;20636;-76
2021/01/25 08:39:35;;;;;;;30.07;10.17;;;2.60;99.90;;;2.90;89.59;99752.31;5047494;28;20548;-75
2021/01/25 08:42:09;;;;;;;31.07;10.70;;;2.60;99.90;;;2.91;89.47;99756.56;5039336;28;20217;-75
2021/01/25 08:44:43;;;;;;;28.43;10.20;;;2.60;99.90;;;2.94;89.22;99756.50;5039974;28;20236;-76
2021/01/25 08:47:10;;;;;;;33.13;11.77;;;2.60;99.90;;;2.96;89.66;99763.34;5032266;28;20201;-75
2021/01/25 08:49:40;;;;;;;27.10;10.40;;;2.60;99.90;;;2.98;89.40;99765.88;5039834;28;20557;-73
2021/01/25 08:52:10;;;;;;;27.20;10.07;;;2.60;99.90;;;2.99;89.22;99765.00;5043709;28;20286;-71
2021/01/25 08:54:39;;;;;;;27.00;10.67;;;2.60;99.90;;;3.00;89.13;99766.72;5032772;28;20223;-73
2021/01/25 08:57:17;;;;;;;26.93;10.20;;;2.60;99.90;;;3.03;89.05;99766.63;5032466;28;20204;-74
2021/01/25 08:59:45;;;;;;;30.97;10.97;;;2.70;99.90;;;3.06;89.04;99771.72;5034726;28;20197;-72
2021/01/25 09:02:21;;;;;;;31.10;10.97;;;2.70;99.90;;;3.11;89.16;99772.47;5039308;28;20199;-73
2021/01/25 09:04:50;;;;;;;27.30;10.40;;;2.80;99.90;;;3.11;88.75;99773.34;5036470;28;20216;-72
2021/01/25 09:07:19;;;;;;;28.20;10.00;;;2.80;99.90;;;3.14;88.73;99774.97;5040658;28;20232;-73
2021/01/25 09:09:46;;;;;;;34.27;11.97;;;2.80;99.90;;;3.14;88.89;99773.25;5032835;28;20232;-73
2021/01/25 09:12:15;;;;;;;27.80;10.60;;;2.80;99.90;;;3.15;88.75;99776.69;5033971;28;20577;-72
2021/01/25 09:14:41;;;;;;;31.13;11.53;;;2.90;99.90;;;3.21;88.74;99782.56;5039051;28;20224;-76
2021/01/25 09:17:09;;;;;;;38.77;11.57;;;2.90;99.90;;;3.25;88.48;99784.19;5042266;28;20283;-73
2021/01/25 09:19:36;;;;;;;28.00;11.32;;;2.90;99.90;;;3.26;88.55;99790.22;5039552;28;20227;-75
2021/01/25 09:22:03;;;;;;;29.20;10.87;;;3.00;99.90;;;3.32;88.51;99788.31;5045281;28;20189;-75
2021/01/25 09:24:29;;;;;;;32.93;11.80;;;3.10;99.90;;;3.35;88.38;99795.16;5031174;28;20220;-74
2021/01/25 09:26:56;;;;;;;34.87;12.30;;;3.10;99.90;;;3.34;88.35;99796.91;5045582;28;20408;-72
2021/01/25 09:29:22;;;;;;;28.43;11.23;;;3.10;99.90;;;3.33;88.24;99799.53;5034450;28;20213;-74
2021/01/25 09:31:48;;;;;;;31.20;10.80;;;3.10;99.90;;;3.30;88.18;99797.00;5033575;28;20197;-76
2021/01/25 09:34:16;;;;;;;27.58;10.88;;;3.10;99.90;;;3.35;88.16;99795.16;5034849;28;20224;-74
2021/01/25 09:36:42;;;;;;;39.90;13.57;;;3.20;99.90;;;3.46;88.10;99803.50;5034825;28;21007;-74
2021/01/25 09:39:09;;;;;;;32.97;13.77;;;3.20;99.90;;;3.52;87.71;99805.94;5044235;28;20201;-75
2021/01/25 09:41:38;;;;;;;31.15;12.02;;;3.30;99.90;;;3.58;87.76;99810.97;5030156;28;20205;-74
2021/01/25 09:44:05;;;;;;;33.90;11.57;;;3.40;99.90;;;3.58;87.36;99816.16;5031603;28;20217;-73
2021/01/25 09:46:32;;;;;;;30.33;12.02;;;3.40;99.90;;;3.58;87.23;99823.91;5032506;28;21132;-73
2021/01/25 09:48:58;;;;;;;28.77;11.13;;;3.40;99.90;;;3.59;87.22;99823.88;5034826;28;20220;-75
2021/01/25 09:51:25;;;;;;;24.83;10.20;;;3.40;99.90;;;3.67;87.06;99823.66;5037655;28;20189;-73
2021/01/25 09:53:51;;;;;;;26.33;9.83;;;3.50;99.90;;;3.74;87.02;99831.25;5030633;28;20209;-75
2021/01/25 09:56:17;;;;;;;28.50;11.23;;;3.50;99.90;;;3.83;86.74;99830.19;5033405;28;20197;-75
2021/01/25 09:58:44;;;;;;;29.50;11.27;;;3.60;99.90;;;3.88;86.62;99838.69;5028868;28;20190;-75
2021/01/25 10:01:10;;;;;;;24.65;10.00;;;3.70;99.90;;;3.81;86.24;99832.81;5037152;28;20189;-74
2021/01/25 10:03:36;;;;;;;25.23;9.93;;;3.70;99.90;;;3.80;86.26;99830.25;5027546;28;20593;-74
2021/01/25 10:06:03;;;;;;;29.90;10.10;;;3.70;99.90;;;3.80;86.27;99843.19;5035105;28;20197;-74
2021/01/25 10:08:30;;;;;;;27.40;10.15;;;3.70;99.90;;;3.82;86.02;99838.81;5040122;28;20220;-73
2021/01/25 10:10:57;;;;;;;28.45;9.73;;;3.70;99.90;;;3.83;86.10;99837.94;5029883;28;20292;-76
2021/01/25 10:13:23;;;;;;;32.13;11.00;;;3.70;99.90;;;3.81;85.33;99839.72;5035068;28;20227;-75
2021/01/25 10:15:50;;;;;;;30.23;10.30;;;3.70;99.90;;;3.80;85.50;99840.59;5036507;28;20220;-74
2021/01/25 10:18:16;;;;;;;27.27;9.80;;;3.70;99.90;;;3.77;85.28;99843.25;5033533;28;20193;-74
2021/01/25 10:20:44;;;;;;;31.50;10.52;;;3.60;99.90;;;3.75;85.42;99847.63;5030757;28;20216;-76
2021/01/25 10:23:12;;;;;;;27.00;9.87;;;3.60;99.90;;;3.72;85.11;99847.69;5032621;28;20614;-74
2021/01/25 10:25:39;;;;;;;23.87;9.93;;;3.50;99.90;;;3.65;84.90;99851.31;5040360;28;20217;-75
2021/01/25 10:28:06;;;;;;;24.85;9.80;;;3.50;99.90;;;3.63;85.20;99845.34;5037340;28;20213;-73